Aérodrome :







RETROUVEZ-NOUS SUR...

 
LOGIN :

S'inscrire | Disclaimer

   EN    FR    IT 

 









Légende :    VFR   VFR Marginal   IFR   IFR Intensif   IFR Très Intensif
Visi : 
Plafond : 
>= 8 km
>= 3000ft
5 à 8 km
1000 à 3000 ft
1500m à 5 km
500 à 1000 ft
800 à 1500m
200 à 500 ft
< 800m
< 200 ft
Symboles :   Orages  Brouillard  Fortes neiges  Fortes précipitations  Vent > 20 kt






- Altitude de l'aérodrome : 461 ft
- Code IATA : YYT


CYYT - St John's Int

DERNIER METAR :
  • 090400Z 28015KT 15SM OVC005 09/09 A3018 RMK SF8 SLP225

METARs EXPIRÉS :
  • 090300Z 27013KT 15SM BKN007 10/09 A3018 RMK SF6 SLP225
  • 090231Z 25007KT 15SM BKN008 09/08 A3018 RMK SF7 SLP226
  • 090200Z 22007KT 15SM FEW240 09/08 A3019 RMK CI1 SLP227

TAF AMD TAF CYYT
Valide du 09 à 02h jusqu'au 10 à 00h UTC


090247Z 0902/0924 25008KT P6SM BKN008
TEMPO 0902/0904 2SM BR BKN003
FM090400 23008KT 3/4SM BR BKN003
TEMPO 0904/0912 6SM BR SCT003 BKN008
FM091200 24008KT P6SM BKN020
FM091400 24010KT P6SM FEW040 FEW200
FM092100 25010KT P6SM -SHRA BKN015 BKN025 RMK NXT FCST BY 090600Z
FIR CZQX / Amérique du Nord



MET'MAP, la Météo Aéronautique d'un coup d'oeil ! - Copyright ORBIFLY Décembre 2007 - Disclaimer

ORBIFLY MET'MAP TEAM :

Programmation & Développement : Alexandra Zaïnal
Sur une idée originale de : Baudouin d'Aumeries
Assistance à la programmation : Marc-Olivier Méhu
Soutien technique & logistique : Manuel Goepfert

Contact : metmap@orbifly.com




SOURCES & CREDITS :

   NOAA